sensor_id;sensor_type;location;lat;lon;timestamp;pressure;altitude;pressure_sealevel;temperature;humidity
39681;BME280;26327;42.550;23.120;2023-05-29T00:01:25;92547.63;;;16.33;83.82
39681;BME280;26327;42.550;23.120;2023-05-29T00:03:51;92496.16;;;16.21;83.50
39681;BME280;26327;42.550;23.120;2023-05-29T00:06:18;92477.13;;;15.95;83.91
39681;BME280;26327;42.550;23.120;2023-05-29T00:08:44;92570.69;;;16.43;84.85
39681;BME280;26327;42.550;23.120;2023-05-29T00:11:09;92494.09;;;15.93;84.95
39681;BME280;26327;42.550;23.120;2023-05-29T00:13:35;92487.47;;;15.90;84.60
39681;BME280;26327;42.550;23.120;2023-05-29T00:16:00;92444.78;;;15.53;84.74
39681;BME280;26327;42.550;23.120;2023-05-29T00:18:26;92563.25;;;16.10;85.71
39681;BME280;26327;42.550;23.120;2023-05-29T00:20:52;92544.41;;;15.83;87.48
39681;BME280;26327;42.550;23.120;2023-05-29T00:23:19;92565.50;;;15.88;87.57
39681;BME280;26327;42.550;23.120;2023-05-29T00:25:44;92551.31;;;15.78;87.40
39681;BME280;26327;42.550;23.120;2023-05-29T00:28:10;92519.06;;;15.59;86.98
39681;BME280;26327;42.550;23.120;2023-05-29T00:30:37;92517.16;;;15.48;87.22
39681;BME280;26327;42.550;23.120;2023-05-29T00:33:03;92578.38;;;16.08;85.77
39681;BME280;26327;42.550;23.120;2023-05-29T00:35:28;92501.66;;;15.46;85.96
39681;BME280;26327;42.550;23.120;2023-05-29T00:37:53;92576.63;;;15.84;86.31
39681;BME280;26327;42.550;23.120;2023-05-29T00:40:19;92577.38;;;15.91;85.46
39681;BME280;26327;42.550;23.120;2023-05-29T00:42:44;92458.25;;;15.20;85.53
39681;BME280;26327;42.550;23.120;2023-05-29T00:45:10;92514.31;;;15.49;85.82
39681;BME280;26327;42.550;23.120;2023-05-29T00:47:36;92547.97;;;15.89;85.85
39681;BME280;26327;42.550;23.120;2023-05-29T00:50:02;92573.00;;;16.21;86.42
39681;BME280;26327;42.550;23.120;2023-05-29T00:52:29;92555.97;;;16.12;87.08
39681;BME280;26327;42.550;23.120;2023-05-29T00:54:54;92560.53;;;16.17;88.28
39681;BME280;26327;42.550;23.120;2023-05-29T00:57:20;92572.19;;;16.21;88.06
39681;BME280;26327;42.550;23.120;2023-05-29T00:59:47;92564.47;;;16.26;88.27
39681;BME280;26327;42.550;23.120;2023-05-29T01:02:14;92535.81;;;15.94;89.08
39681;BME280;26327;42.550;23.120;2023-05-29T01:04:40;92509.81;;;15.93;88.45
39681;BME280;26327;42.550;23.120;2023-05-29T01:07:05;92471.94;;;15.77;87.83
39681;BME280;26327;42.550;23.120;2023-05-29T01:09:32;92530.34;;;16.14;87.99
39681;BME280;26327;42.550;23.120;2023-05-29T01:12:14;92551.75;;;16.11;89.50
39681;BME280;26327;42.550;23.120;2023-05-29T01:17:58;92557.63;;;16.06;90.25
39681;BME280;26327;42.550;23.120;2023-05-29T01:28:48;92536.38;;;15.96;90.09
39681;BME280;26327;42.550;23.120;2023-05-29T01:31:23;92526.69;;;15.97;89.76
39681;BME280;26327;42.550;23.120;2023-05-29T01:33:57;92555.22;;;16.05;90.57
39681;BME280;26327;42.550;23.120;2023-05-29T01:36:24;92531.75;;;15.80;90.93
39681;BME280;26327;42.550;23.120;2023-05-29T01:38:51;92559.69;;;15.86;91.66
39681;BME280;26327;42.550;23.120;2023-05-29T01:41:18;92505.16;;;15.40;91.93
39681;BME280;26327;42.550;23.120;2023-05-29T01:43:45;92485.16;;;15.46;91.42
39681;BME280;26327;42.550;23.120;2023-05-29T01:46:14;92563.59;;;15.95;90.79
39681;BME280;26327;42.550;23.120;2023-05-29T01:48:44;92550.38;;;15.90;90.15
39681;BME280;26327;42.550;23.120;2023-05-29T01:51:11;92556.19;;;15.74;90.37
39681;BME280;26327;42.550;23.120;2023-05-29T01:53:40;92561.00;;;15.77;90.53
39681;BME280;26327;42.550;23.120;2023-05-29T01:56:06;92572.94;;;15.73;90.25
39681;BME280;26327;42.550;23.120;2023-05-29T01:58:34;92480.75;;;15.03;90.29
39681;BME280;26327;42.550;23.120;2023-05-29T02:01:01;92472.38;;;14.94;89.95
39681;BME280;26327;42.550;23.120;2023-05-29T02:03:27;92485.84;;;14.98;89.70
39681;BME280;26327;42.550;23.120;2023-05-29T02:05:57;92529.44;;;15.04;90.24
39681;BME280;26327;42.550;23.120;2023-05-29T02:08:22;92495.44;;;15.04;88.96
39681;BME280;26327;42.550;23.120;2023-05-29T02:10:47;92463.84;;;14.56;90.56
39681;BME280;26327;42.550;23.120;2023-05-29T02:13:13;92485.31;;;14.89;90.08
39681;BME280;26327;42.550;23.120;2023-05-29T02:15:38;92530.94;;;15.18;90.69
39681;BME280;26327;42.550;23.120;2023-05-29T02:18:04;92553.34;;;15.32;91.44
39681;BME280;26327;42.550;23.120;2023-05-29T02:20:29;92486.34;;;15.06;91.79
39681;BME280;26327;42.550;23.120;2023-05-29T02:22:54;92498.09;;;15.40;90.73
39681;BME280;26327;42.550;23.120;2023-05-29T02:25:20;92553.91;;;15.59;91.88
39681;BME280;26327;42.550;23.120;2023-05-29T02:27:45;92473.06;;;15.08;92.51
39681;BME280;26327;42.550;23.120;2023-05-29T02:30:11;92550.31;;;15.54;93.13
39681;BME280;26327;42.550;23.120;2023-05-29T02:32:36;92484.66;;;15.37;92.11
39681;BME280;26327;42.550;23.120;2023-05-29T02:35:02;92547.75;;;15.90;91.45
39681;BME280;26327;42.550;23.120;2023-05-29T02:37:28;92514.72;;;15.71;92.19
39681;BME280;26327;42.550;23.120;2023-05-29T02:39:53;92458.53;;;15.30;92.79
39681;BME280;26327;42.550;23.120;2023-05-29T02:42:19;92473.94;;;15.57;92.15
39681;BME280;26327;42.550;23.120;2023-05-29T02:44:44;92550.94;;;16.11;92.18
39681;BME280;26327;42.550;23.120;2023-05-29T02:47:09;92496.53;;;15.76;92.55
39681;BME280;26327;42.550;23.120;2023-05-29T02:49:35;92490.66;;;15.62;93.06
39681;BME280;26327;42.550;23.120;2023-05-29T02:52:00;92551.00;;;16.04;92.84
39681;BME280;26327;42.550;23.120;2023-05-29T02:54:25;92525.31;;;15.94;92.87
39681;BME280;26327;42.550;23.120;2023-05-29T02:56:52;92490.28;;;15.77;92.18
39681;BME280;26327;42.550;23.120;2023-05-29T02:59:17;92441.81;;;15.50;91.24
39681;BME280;26327;42.550;23.120;2023-05-29T03:01:43;92483.13;;;15.48;90.49
39681;BME280;26327;42.550;23.120;2023-05-29T03:04:09;92550.44;;;15.65;91.00
39681;BME280;26327;42.550;23.120;2023-05-29T03:06:35;92547.25;;;15.82;89.52
39681;BME280;26327;42.550;23.120;2023-05-29T03:09:02;92558.38;;;15.77;89.34
39681;BME280;26327;42.550;23.120;2023-05-29T03:11:28;92512.94;;;15.28;90.77
39681;BME280;26327;42.550;23.120;2023-05-29T03:13:54;92565.81;;;15.80;90.04
39681;BME280;26327;42.550;23.120;2023-05-29T03:16:20;92560.56;;;15.62;89.86
39681;BME280;26327;42.550;23.120;2023-05-29T03:18:46;92555.91;;;15.57;89.98
39681;BME280;26327;42.550;23.120;2023-05-29T03:21:11;92569.94;;;15.44;90.84
39681;BME280;26327;42.550;23.120;2023-05-29T03:23:37;92512.94;;;15.47;88.26
39681;BME280;26327;42.550;23.120;2023-05-29T03:26:02;92585.00;;;15.49;90.47
39681;BME280;26327;42.550;23.120;2023-05-29T03:28:29;92483.25;;;14.73;90.94
39681;BME280;26327;42.550;23.120;2023-05-29T03:30:54;92488.84;;;14.76;91.18
39681;BME280;26327;42.550;23.120;2023-05-29T03:33:20;92550.28;;;15.17;91.07
39681;BME280;26327;42.550;23.120;2023-05-29T03:35:45;92563.19;;;15.12;91.56
39681;BME280;26327;42.550;23.120;2023-05-29T03:38:11;92496.16;;;14.68;91.66
39681;BME280;26327;42.550;23.120;2023-05-29T03:40:36;92499.16;;;14.71;91.28
39681;BME280;26327;42.550;23.120;2023-05-29T03:43:02;92463.97;;;14.36;91.35
39681;BME280;26327;42.550;23.120;2023-05-29T03:45:27;92587.81;;;15.04;92.23
39681;BME280;26327;42.550;23.120;2023-05-29T03:47:52;92476.47;;;14.34;91.75
39681;BME280;26327;42.550;23.120;2023-05-29T03:50:18;92586.19;;;15.03;91.98
39681;BME280;26327;42.550;23.120;2023-05-29T03:52:43;92533.25;;;14.83;90.92
39681;BME280;26327;42.550;23.120;2023-05-29T03:55:09;92541.19;;;14.95;90.33
39681;BME280;26327;42.550;23.120;2023-05-29T03:57:38;92592.84;;;15.31;90.27
39681;BME280;26327;42.550;23.120;2023-05-29T04:00:07;92575.56;;;14.98;91.48
39681;BME280;26327;42.550;23.120;2023-05-29T04:02:33;92521.66;;;14.72;91.28
39681;BME280;26327;42.550;23.120;2023-05-29T04:04:58;92588.34;;;15.13;91.48
39681;BME280;26327;42.550;23.120;2023-05-29T04:07:24;92568.91;;;15.02;91.63
39681;BME280;26327;42.550;23.120;2023-05-29T04:09:49;92544.19;;;14.98;90.75
39681;BME280;26327;42.550;23.120;2023-05-29T04:12:15;92531.91;;;14.99;90.07
39681;BME280;26327;42.550;23.120;2023-05-29T04:14:41;92619.22;;;15.29;91.36
39681;BME280;26327;42.550;23.120;2023-05-29T04:17:07;92626.13;;;15.24;93.61
39681;BME280;26327;42.550;23.120;2023-05-29T04:19:32;92623.06;;;14.70;97.30
39681;BME280;26327;42.550;23.120;2023-05-29T04:21:58;92488.63;;;14.15;97.37
39681;BME280;26327;42.550;23.120;2023-05-29T04:24:23;92619.19;;;15.54;94.48
39681;BME280;26327;42.550;23.120;2023-05-29T04:26:49;92609.94;;;15.58;92.99
39681;BME280;26327;42.550;23.120;2023-05-29T04:29:16;92568.19;;;15.82;90.88
39681;BME280;26327;42.550;23.120;2023-05-29T04:31:42;92550.91;;;15.56;91.64
39681;BME280;26327;42.550;23.120;2023-05-29T04:34:07;92561.59;;;15.79;91.47
39681;BME280;26327;42.550;23.120;2023-05-29T04:36:33;92611.16;;;16.17;91.87
39681;BME280;26327;42.550;23.120;2023-05-29T04:39:02;92579.25;;;16.02;91.69
39681;BME280;26327;42.550;23.120;2023-05-29T04:41:28;92516.09;;;15.92;90.00
39681;BME280;26327;42.550;23.120;2023-05-29T04:43:57;92627.72;;;16.66;89.69
39681;BME280;26327;42.550;23.120;2023-05-29T04:46:24;92643.38;;;16.36;92.02
39681;BME280;26327;42.550;23.120;2023-05-29T04:48:52;92647.31;;;16.45;92.14
39681;BME280;26327;42.550;23.120;2023-05-29T04:51:21;92501.63;;;15.71;90.60
39681;BME280;26327;42.550;23.120;2023-05-29T04:53:47;92618.81;;;16.67;89.62
39681;BME280;26327;42.550;23.120;2023-05-29T04:56:13;92652.66;;;16.87;89.83
39681;BME280;26327;42.550;23.120;2023-05-29T04:58:40;92612.34;;;16.70;89.35
39681;BME280;26327;42.550;23.120;2023-05-29T05:01:06;92635.38;;;16.67;90.13
39681;BME280;26327;42.550;23.120;2023-05-29T05:03:33;92660.63;;;17.10;88.88
39681;BME280;26327;42.550;23.120;2023-05-29T05:06:02;92629.81;;;17.17;87.24
39681;BME280;26327;42.550;23.120;2023-05-29T05:08:29;92667.16;;;17.84;84.89
39681;BME280;26327;42.550;23.120;2023-05-29T05:10:55;92595.78;;;17.11;86.35
39681;BME280;26327;42.550;23.120;2023-05-29T05:13:20;92602.09;;;17.33;85.81
39681;BME280;26327;42.550;23.120;2023-05-29T05:15:46;92652.97;;;16.79;89.92
39681;BME280;26327;42.550;23.120;2023-05-29T05:18:11;92522.41;;;16.02;89.74
39681;BME280;26327;42.550;23.120;2023-05-29T05:20:37;92650.75;;;16.94;89.31
39681;BME280;26327;42.550;23.120;2023-05-29T05:23:02;92675.28;;;17.29;88.54
39681;BME280;26327;42.550;23.120;2023-05-29T05:25:27;92655.31;;;17.40;86.74
39681;BME280;26327;42.550;23.120;2023-05-29T05:27:53;92634.06;;;17.30;86.22
39681;BME280;26327;42.550;23.120;2023-05-29T05:30:18;92641.16;;;17.41;86.02
39681;BME280;26327;42.550;23.120;2023-05-29T05:32:44;92633.38;;;16.93;88.55
39681;BME280;26327;42.550;23.120;2023-05-29T05:35:09;92590.81;;;16.91;88.36
39681;BME280;26327;42.550;23.120;2023-05-29T05:37:37;92556.03;;;16.84;87.67
39681;BME280;26327;42.550;23.120;2023-05-29T05:40:03;92663.63;;;17.79;86.73
39681;BME280;26327;42.550;23.120;2023-05-29T05:42:31;92583.84;;;17.50;85.75
39681;BME280;26327;42.550;23.120;2023-05-29T05:44:57;92552.09;;;17.28;85.13
39681;BME280;26327;42.550;23.120;2023-05-29T05:47:22;92656.88;;;18.06;84.48
39681;BME280;26327;42.550;23.120;2023-05-29T05:49:48;92654.09;;;18.36;82.28
39681;BME280;26327;42.550;23.120;2023-05-29T05:52:15;92679.03;;;18.22;83.34
39681;BME280;26327;42.550;23.120;2023-05-29T05:54:53;92689.44;;;18.17;83.77
39681;BME280;26327;42.550;23.120;2023-05-29T05:57:33;92649.34;;;17.98;83.88
39681;BME280;26327;42.550;23.120;2023-05-29T06:00:01;92671.16;;;18.22;82.22
39681;BME280;26327;42.550;23.120;2023-05-29T06:02:29;92658.56;;;18.24;82.21
39681;BME280;26327;42.550;23.120;2023-05-29T06:04:55;92650.75;;;18.41;80.82
39681;BME280;26327;42.550;23.120;2023-05-29T06:07:20;92551.28;;;17.86;80.15
39681;BME280;26327;42.550;23.120;2023-05-29T06:09:46;92664.13;;;18.39;81.00
39681;BME280;26327;42.550;23.120;2023-05-29T06:12:11;92663.81;;;18.36;82.24
39681;BME280;26327;42.550;23.120;2023-05-29T06:14:37;92552.78;;;17.82;80.50
39681;BME280;26327;42.550;23.120;2023-05-29T06:17:02;92657.47;;;18.72;79.57
39681;BME280;26327;42.550;23.120;2023-05-29T06:19:28;92634.66;;;18.77;78.53
39681;BME280;26327;42.550;23.120;2023-05-29T06:21:53;92669.16;;;19.04;78.00
39681;BME280;26327;42.550;23.120;2023-05-29T06:24:19;92682.25;;;19.44;76.68
39681;BME280;26327;42.550;23.120;2023-05-29T06:26:44;92664.28;;;19.41;75.60
39681;BME280;26327;42.550;23.120;2023-05-29T06:29:10;92674.38;;;19.33;75.92
39681;BME280;26327;42.550;23.120;2023-05-29T06:31:35;92649.16;;;19.37;75.43
39681;BME280;26327;42.550;23.120;2023-05-29T06:34:01;92636.53;;;19.39;73.95
39681;BME280;26327;42.550;23.120;2023-05-29T06:36:26;92686.50;;;19.79;73.73
39681;BME280;26327;42.550;23.120;2023-05-29T06:38:51;92630.19;;;19.68;71.93
39681;BME280;26327;42.550;23.120;2023-05-29T06:41:17;92593.06;;;19.53;71.64
39681;BME280;26327;42.550;23.120;2023-05-29T06:43:43;92678.44;;;20.02;72.97
39681;BME280;26327;42.550;23.120;2023-05-29T06:46:10;92678.78;;;19.89;73.59
39681;BME280;26327;42.550;23.120;2023-05-29T06:48:37;92615.16;;;19.86;72.47
39681;BME280;26327;42.550;23.120;2023-05-29T06:51:03;92673.13;;;20.36;72.67
39681;BME280;26327;42.550;23.120;2023-05-29T06:53:37;92666.72;;;20.70;71.17
39681;BME280;26327;42.550;23.120;2023-05-29T06:56:04;92612.59;;;20.46;69.94
39681;BME280;26327;42.550;23.120;2023-05-29T06:58:30;92657.88;;;20.82;68.56
39681;BME280;26327;42.550;23.120;2023-05-29T07:00:56;92665.22;;;21.01;68.94
39681;BME280;26327;42.550;23.120;2023-05-29T07:03:22;92612.66;;;20.78;68.27
39681;BME280;26327;42.550;23.120;2023-05-29T07:05:47;92676.88;;;21.27;67.41
39681;BME280;26327;42.550;23.120;2023-05-29T07:08:13;92515.66;;;20.20;67.06
39681;BME280;26327;42.550;23.120;2023-05-29T07:10:38;92676.16;;;21.32;66.65
39681;BME280;26327;42.550;23.120;2023-05-29T07:13:04;92628.38;;;21.17;66.25
39681;BME280;26327;42.550;23.120;2023-05-29T07:15:31;92639.44;;;21.35;65.84
39681;BME280;26327;42.550;23.120;2023-05-29T07:17:57;92681.84;;;21.78;65.27
39681;BME280;26327;42.550;23.120;2023-05-29T07:20:22;92578.84;;;21.02;65.55
39681;BME280;26327;42.550;23.120;2023-05-29T07:22:47;92563.56;;;21.04;65.78
39681;BME280;26327;42.550;23.120;2023-05-29T07:25:13;92668.91;;;21.81;64.39
39681;BME280;26327;42.550;23.120;2023-05-29T07:27:38;92630.81;;;21.77;63.12
39681;BME280;26327;42.550;23.120;2023-05-29T07:30:04;92621.53;;;22.12;61.55
39681;BME280;26327;42.550;23.120;2023-05-29T07:32:31;92682.16;;;22.60;60.91
39681;BME280;26327;42.550;23.120;2023-05-29T07:34:56;92626.84;;;22.69;60.03
39681;BME280;26327;42.550;23.120;2023-05-29T07:37:21;92639.78;;;23.43;58.27
39681;BME280;26327;42.550;23.120;2023-05-29T07:39:47;92614.88;;;24.21;54.04
39681;BME280;26327;42.550;23.120;2023-05-29T07:42:12;92616.78;;;24.90;51.97
39681;BME280;26327;42.550;23.120;2023-05-29T07:44:38;92669.19;;;25.88;49.53
39681;BME280;26327;42.550;23.120;2023-05-29T07:47:03;92625.00;;;26.50;46.58
39681;BME280;26327;42.550;23.120;2023-05-29T07:49:29;92605.19;;;26.80;45.72
39681;BME280;26327;42.550;23.120;2023-05-29T07:51:55;92650.69;;;28.06;43.88
39681;BME280;26327;42.550;23.120;2023-05-29T07:54:21;92638.00;;;28.31;41.37
39681;BME280;26327;42.550;23.120;2023-05-29T07:56:46;92648.41;;;29.06;39.77
39681;BME280;26327;42.550;23.120;2023-05-29T07:59:12;92616.00;;;28.20;40.08
39681;BME280;26327;42.550;23.120;2023-05-29T08:01:38;92649.66;;;27.70;41.35
39681;BME280;26327;42.550;23.120;2023-05-29T08:04:04;92674.72;;;27.50;42.48
39681;BME280;26327;42.550;23.120;2023-05-29T08:06:30;92651.03;;;27.24;41.86
39681;BME280;26327;42.550;23.120;2023-05-29T08:08:57;92616.53;;;26.66;42.57
39681;BME280;26327;42.550;23.120;2023-05-29T08:11:23;92642.00;;;26.54;42.81
39681;BME280;26327;42.550;23.120;2023-05-29T08:13:48;92611.03;;;27.06;42.63
39681;BME280;26327;42.550;23.120;2023-05-29T08:16:13;92618.47;;;27.65;42.08
39681;BME280;26327;42.550;23.120;2023-05-29T08:18:41;92596.69;;;28.09;40.29
39681;BME280;26327;42.550;23.120;2023-05-29T08:21:06;92637.50;;;28.29;40.43
39681;BME280;26327;42.550;23.120;2023-05-29T08:23:32;92663.44;;;28.28;40.21
39681;BME280;26327;42.550;23.120;2023-05-29T08:25:57;92665.59;;;28.72;39.61
39681;BME280;26327;42.550;23.120;2023-05-29T08:28:22;92596.56;;;29.15;38.58
39681;BME280;26327;42.550;23.120;2023-05-29T08:30:48;92605.41;;;29.88;37.67
39681;BME280;26327;42.550;23.120;2023-05-29T08:33:13;92625.22;;;30.94;36.49
39681;BME280;26327;42.550;23.120;2023-05-29T08:35:39;92622.53;;;31.59;34.22
39681;BME280;26327;42.550;23.120;2023-05-29T08:38:04;92612.59;;;31.43;33.17
39681;BME280;26327;42.550;23.120;2023-05-29T08:40:30;92651.47;;;31.06;34.33
39681;BME280;26327;42.550;23.120;2023-05-29T08:43:16;92659.03;;;31.43;33.42
39681;BME280;26327;42.550;23.120;2023-05-29T08:45:43;92609.78;;;30.99;33.84
39681;BME280;26327;42.550;23.120;2023-05-29T08:48:11;92657.09;;;30.33;35.40
39681;BME280;26327;42.550;23.120;2023-05-29T08:50:46;92638.94;;;29.86;35.76
39681;BME280;26327;42.550;23.120;2023-05-29T08:53:13;92647.38;;;29.43;36.14
39681;BME280;26327;42.550;23.120;2023-05-29T08:55:39;92660.28;;;29.00;36.44
39681;BME280;26327;42.550;23.120;2023-05-29T08:58:05;92643.41;;;28.44;38.20
39681;BME280;26327;42.550;23.120;2023-05-29T09:00:32;92643.53;;;29.08;38.65
39681;BME280;26327;42.550;23.120;2023-05-29T09:02:57;92636.94;;;29.55;37.42
39681;BME280;26327;42.550;23.120;2023-05-29T09:05:25;92616.41;;;29.87;35.65
39681;BME280;26327;42.550;23.120;2023-05-29T09:07:53;92538.16;;;30.21;35.30
39681;BME280;26327;42.550;23.120;2023-05-29T09:10:19;92635.81;;;31.47;33.62
39681;BME280;26327;42.550;23.120;2023-05-29T09:12:46;92625.69;;;31.61;33.64
39681;BME280;26327;42.550;23.120;2023-05-29T09:15:22;92617.84;;;31.91;33.23
39681;BME280;26327;42.550;23.120;2023-05-29T09:17:57;92609.44;;;32.01;32.89
39681;BME280;26327;42.550;23.120;2023-05-29T09:20:24;92603.75;;;32.29;30.72
39681;BME280;26327;42.550;23.120;2023-05-29T09:23:01;92599.97;;;32.76;30.47
39681;BME280;26327;42.550;23.120;2023-05-29T09:25:28;92619.75;;;32.80;31.13
39681;BME280;26327;42.550;23.120;2023-05-29T09:28:06;92613.00;;;32.57;30.74
39681;BME280;26327;42.550;23.120;2023-05-29T09:30:45;92619.94;;;32.67;30.34
39681;BME280;26327;42.550;23.120;2023-05-29T09:33:13;92554.75;;;31.97;30.13
39681;BME280;26327;42.550;23.120;2023-05-29T09:35:43;92612.31;;;31.96;30.65
39681;BME280;26327;42.550;23.120;2023-05-29T09:38:10;92573.69;;;30.66;31.41
39681;BME280;26327;42.550;23.120;2023-05-29T09:40:37;92584.31;;;30.49;33.01
39681;BME280;26327;42.550;23.120;2023-05-29T09:43:15;92584.81;;;30.51;33.86
39681;BME280;26327;42.550;23.120;2023-05-29T09:45:48;92614.22;;;30.33;34.01
39681;BME280;26327;42.550;23.120;2023-05-29T09:48:24;92583.59;;;29.59;34.54
39681;BME280;26327;42.550;23.120;2023-05-29T09:50:49;92582.69;;;30.08;34.82
39681;BME280;26327;42.550;23.120;2023-05-29T09:55:48;92606.50;;;30.10;33.97
39681;BME280;26327;42.550;23.120;2023-05-29T09:58:14;92610.81;;;29.25;34.53
39681;BME280;26327;42.550;23.120;2023-05-29T10:00:41;92551.31;;;28.78;35.42
39681;BME280;26327;42.550;23.120;2023-05-29T10:03:07;92548.94;;;29.40;36.71
39681;BME280;26327;42.550;23.120;2023-05-29T10:05:32;92591.56;;;29.72;34.11
39681;BME280;26327;42.550;23.120;2023-05-29T10:07:59;92591.59;;;30.79;32.90
39681;BME280;26327;42.550;23.120;2023-05-29T10:10:27;92546.75;;;30.40;33.89
39681;BME280;26327;42.550;23.120;2023-05-29T10:12:53;92498.88;;;29.85;33.15
39681;BME280;26327;42.550;23.120;2023-05-29T10:15:23;92538.69;;;29.20;33.13
39681;BME280;26327;42.550;23.120;2023-05-29T10:18:05;92531.44;;;29.56;34.34
39681;BME280;26327;42.550;23.120;2023-05-29T10:20:35;92500.16;;;29.43;34.74
39681;BME280;26327;42.550;23.120;2023-05-29T10:23:03;92538.88;;;29.59;34.09
39681;BME280;26327;42.550;23.120;2023-05-29T10:25:30;92587.00;;;29.51;34.70
39681;BME280;26327;42.550;23.120;2023-05-29T10:27:57;92554.78;;;28.78;34.67
39681;BME280;26327;42.550;23.120;2023-05-29T10:30:36;92575.19;;;29.02;34.22
39681;BME280;26327;42.550;23.120;2023-05-29T10:35:53;92566.19;;;28.43;35.16
39681;BME280;26327;42.550;23.120;2023-05-29T10:38:19;92604.00;;;28.17;34.93
39681;BME280;26327;42.550;23.120;2023-05-29T10:40:45;92490.25;;;27.38;35.71
39681;BME280;26327;42.550;23.120;2023-05-29T10:43:46;92600.22;;;27.16;35.99
39681;BME280;26327;42.550;23.120;2023-05-29T10:46:11;92555.53;;;26.84;36.23
39681;BME280;26327;42.550;23.120;2023-05-29T10:48:37;92528.28;;;26.49;37.78
39681;BME280;26327;42.550;23.120;2023-05-29T10:51:05;92587.03;;;26.82;38.70
39681;BME280;26327;42.550;23.120;2023-05-29T10:53:32;92536.00;;;26.70;38.66
39681;BME280;26327;42.550;23.120;2023-05-29T10:56:00;92574.06;;;27.18;37.37
39681;BME280;26327;42.550;23.120;2023-05-29T10:58:26;92526.59;;;26.77;37.41
39681;BME280;26327;42.550;23.120;2023-05-29T11:00:54;92585.88;;;26.88;38.13
39681;BME280;26327;42.550;23.120;2023-05-29T11:03:29;92500.31;;;26.23;38.50
39681;BME280;26327;42.550;23.120;2023-05-29T11:06:05;92580.63;;;26.35;39.43
39681;BME280;26327;42.550;23.120;2023-05-29T11:08:53;92520.50;;;26.53;38.09
39681;BME280;26327;42.550;23.120;2023-05-29T11:11:29;92572.47;;;26.93;38.13
39681;BME280;26327;42.550;23.120;2023-05-29T11:13:55;92554.88;;;26.73;38.93
39681;BME280;26327;42.550;23.120;2023-05-29T11:18:51;92496.25;;;26.92;37.00
39681;BME280;26327;42.550;23.120;2023-05-29T11:21:49;92567.97;;;27.69;37.87
39681;BME280;26327;42.550;23.120;2023-05-29T11:24:24;92525.94;;;27.93;35.16
39681;BME280;26327;42.550;23.120;2023-05-29T11:26:51;92541.47;;;28.05;35.92
39681;BME280;26327;42.550;23.120;2023-05-29T11:29:24;92543.78;;;28.25;36.45
39681;BME280;26327;42.550;23.120;2023-05-29T11:32:03;92548.25;;;28.30;36.19
39681;BME280;26327;42.550;23.120;2023-05-29T11:34:30;92541.31;;;28.70;36.42
39681;BME280;26327;42.550;23.120;2023-05-29T11:36:58;92478.84;;;28.11;35.43
39681;BME280;26327;42.550;23.120;2023-05-29T11:39:23;92556.16;;;28.76;35.30
39681;BME280;26327;42.550;23.120;2023-05-29T11:41:53;92559.91;;;27.87;35.94
39681;BME280;26327;42.550;23.120;2023-05-29T11:44:19;92554.63;;;28.15;36.35
39681;BME280;26327;42.550;23.120;2023-05-29T11:46:45;92498.25;;;27.38;35.31
39681;BME280;26327;42.550;23.120;2023-05-29T11:49:11;92545.84;;;27.31;35.30
39681;BME280;26327;42.550;23.120;2023-05-29T11:51:36;92546.41;;;26.90;35.65
39681;BME280;26327;42.550;23.120;2023-05-29T11:54:02;92451.00;;;26.25;37.63
39681;BME280;26327;42.550;23.120;2023-05-29T11:56:28;92555.09;;;26.77;39.24
39681;BME280;26327;42.550;23.120;2023-05-29T11:58:55;92568.13;;;26.59;39.02
39681;BME280;26327;42.550;23.120;2023-05-29T12:01:23;92562.66;;;26.70;39.87
39681;BME280;26327;42.550;23.120;2023-05-29T12:03:50;92499.38;;;26.14;40.88
39681;BME280;26327;42.550;23.120;2023-05-29T12:06:16;92551.72;;;26.23;41.67
39681;BME280;26327;42.550;23.120;2023-05-29T12:08:41;92502.00;;;25.90;41.93
39681;BME280;26327;42.550;23.120;2023-05-29T12:11:06;92494.59;;;25.53;44.06
39681;BME280;26327;42.550;23.120;2023-05-29T12:13:34;92555.94;;;25.71;45.25
39681;BME280;26327;42.550;23.120;2023-05-29T12:16:01;92489.00;;;25.25;46.42
39681;BME280;26327;42.550;23.120;2023-05-29T12:18:29;92491.75;;;23.96;54.90
39681;BME280;26327;42.550;23.120;2023-05-29T12:21:00;92568.22;;;23.84;57.98
39681;BME280;26327;42.550;23.120;2023-05-29T12:23:25;92555.63;;;24.95;51.50
39681;BME280;26327;42.550;23.120;2023-05-29T12:25:51;92528.69;;;25.17;49.69
39681;BME280;26327;42.550;23.120;2023-05-29T12:28:18;92552.06;;;25.20;49.63
39681;BME280;26327;42.550;23.120;2023-05-29T12:30:44;92551.50;;;24.73;53.46
39681;BME280;26327;42.550;23.120;2023-05-29T12:33:32;92560.59;;;24.57;52.49
39681;BME280;26327;42.550;23.120;2023-05-29T12:36:05;92487.69;;;24.29;51.37
39681;BME280;26327;42.550;23.120;2023-05-29T12:38:31;92506.94;;;24.55;50.67
39681;BME280;26327;42.550;23.120;2023-05-29T12:40:57;92546.97;;;24.74;49.17
39681;BME280;26327;42.550;23.120;2023-05-29T12:43:22;92539.69;;;24.95;48.31
39681;BME280;26327;42.550;23.120;2023-05-29T12:45:54;92517.38;;;25.35;47.30
39681;BME280;26327;42.550;23.120;2023-05-29T12:48:20;92424.63;;;25.57;45.65
39681;BME280;26327;42.550;23.120;2023-05-29T12:50:48;92489.44;;;26.43;45.25
39681;BME280;26327;42.550;23.120;2023-05-29T12:53:15;92531.59;;;27.21;42.85
39681;BME280;26327;42.550;23.120;2023-05-29T12:55:43;92504.31;;;26.87;43.38
39681;BME280;26327;42.550;23.120;2023-05-29T12:58:10;92431.44;;;26.59;43.31
39681;BME280;26327;42.550;23.120;2023-05-29T13:00:43;92510.91;;;27.13;41.88
39681;BME280;26327;42.550;23.120;2023-05-29T13:03:09;92544.47;;;27.52;42.29
39681;BME280;26327;42.550;23.120;2023-05-29T13:05:38;92542.34;;;26.74;43.37
39681;BME280;26327;42.550;23.120;2023-05-29T13:08:04;92539.47;;;26.70;44.49
39681;BME280;26327;42.550;23.120;2023-05-29T13:10:31;92426.09;;;26.40;43.73